Time,TemperatureF,DewpointF,PressureIn,WindDirection,WindDirectionDegrees,WindSpeedMPH,WindSpeedGustMPH,Humidity,HourlyPrecipIn,Conditions,Clouds,dailyrainin,SoftwareType,DateUTC
2013-04-25 00:00:00,44.2,13.2,29.82,SW,228,14.5,18.8,28,0.00,,BKN080,0.00,VWS V14.01,2013-04-25 05:00:00,
2013-04-25 00:05:00,44.1,13.1,29.82,SSW,207,12.8,15.0,28,0.00,,SCT075,0.00,VWS V14.01,2013-04-25 05:05:00,
2013-04-25 00:10:00,44.1,13.1,29.82,WSW,239,5.8,11.0,28,0.00,,SCT075,0.00,VWS V14.01,2013-04-25 05:10:00,
2013-04-25 00:15:00,43.9,12.9,29.79,SW,214,13.2,17.0,28,0.00,,SCT075,0.00,VWS V14.01,2013-04-25 05:15:00,
2013-04-25 00:20:00,43.7,13.5,29.79,SW,229,18.3,18.3,29,0.00,,SCT075,0.00,VWS V14.01,2013-04-25 05:20:00,
2013-04-25 00:26:00,43.2,13.1,29.79,SW,215,8.7,12.3,29,0.00,,SCT075,0.00,VWS V14.01,2013-04-25 05:26:00,
2013-04-25 00:32:00,43.0,12.9,29.79,SW,230,5.8,8.3,29,0.00,,SCT075,0.00,VWS V14.01,2013-04-25 05:32:00,
2013-04-25 00:37:00,43.0,13.7,29.79,SW,221,8.7,11.9,30,0.00,,SCT075,0.00,VWS V14.01,2013-04-25 05:37:00,
2013-04-25 00:43:00,43.0,13.7,29.79,SSW,210,7.6,8.1,30,0.00,,SCT075,0.00,VWS V14.01,2013-04-25 05:43:00,
2013-04-25 00:48:00,43.0,13.7,29.79,SSW,208,11.0,12.3,30,0.00,,SCT075,0.00,VWS V14.01,2013-04-25 05:48:00,
2013-04-25 00:53:00,43.2,13.8,29.79,SW,226,5.8,13.2,30,0.00,,SCT075,0.00,VWS V14.01,2013-04-25 05:53:00,
2013-04-25 00:58:00,43.0,14.4,29.79,SW,227,15.4,15.4,31,0.00,,SCT075,0.00,VWS V14.01,2013-04-25 05:58:00,
2013-04-25 01:03:00,42.8,14.3,29.79,SSW,210,13.2,13.2,31,0.00,,OVC095,0.00,VWS V14.01,2013-04-25 06:03:00,
2013-04-25 01:08:00,42.6,15.6,29.79,SW,229,12.8,12.8,33,0.00,,OVC095,0.00,VWS V14.01,2013-04-25 06:08:00,
2013-04-25 01:13:00,42.4,16.7,29.79,WSW,249,11.0,15.0,35,0.00,,OVC095,0.00,VWS V14.01,2013-04-25 06:13:00,
2013-04-25 01:19:00,42.3,17.9,29.79,South,189,5.4,13.2,37,0.00,,OVC095,0.00,VWS V14.01,2013-04-25 06:19:00,
2013-04-25 01:25:00,42.3,18.5,29.79,SSW,204,13.2,13.2,38,0.00,,OVC095,0.00,VWS V14.01,2013-04-25 06:25:00,
2013-04-25 01:30:00,42.3,18.5,29.79,SW,231,12.3,13.2,38,0.00,,OVC095,0.00,VWS V14.01,2013-04-25 06:30:00,
2013-04-25 01:36:00,42.1,18.3,29.79,SW,232,8.3,15.0,38,0.00,,OVC095,0.00,VWS V14.01,2013-04-25 06:36:00,
2013-04-25 01:41:00,42.1,18.9,29.79,WSW,247,8.7,8.7,39,0.00,,OVC095,0.00,VWS V14.01,2013-04-25 06:41:00,
2013-04-25 01:46:00,41.9,19.4,29.79,SW,223,5.4,8.1,40,0.00,,OVC095,0.00,VWS V14.01,2013-04-25 06:46:00,
2013-04-25 01:51:00,41.7,19.8,29.79,SSW,206,7.6,10.5,41,0.00,,OVC095,0.00,VWS V14.01,2013-04-25 06:51:00,
2013-04-25 01:56:00,41.5,19.6,29.79,SW,230,8.1,10.5,41,0.00,,OVC095,0.00,VWS V14.01,2013-04-25 06:56:00,
2013-04-25 02:01:00,41.2,19.9,29.79,SW,215,10.1,10.5,42,0.00,,OVC065,0.00,VWS V14.01,2013-04-25 07:01:00,
2013-04-25 02:07:00,41.2,20.4,29.79,SSW,212,5.8,12.3,43,0.00,,OVC065,0.00,VWS V14.01,2013-04-25 07:07:00,
2013-04-25 02:12:00,41.0,20.2,29.79,SSW,205,8.3,11.9,43,0.00,,OVC065,0.00,VWS V14.01,2013-04-25 07:12:00,
2013-04-25 02:17:00,41.0,20.2,29.79,SSW,210,9.6,11.0,43,0.00,,OVC065,0.00,VWS V14.01,2013-04-25 07:17:00,
2013-04-25 02:23:00,41.0,20.8,29.79,SW,233,5.8,10.5,44,0.00,,OVC065,0.00,VWS V14.01,2013-04-25 07:23:00,
2013-04-25 02:28:00,41.0,21.3,29.79,WSW,238,7.6,8.7,45,0.00,,OVC065,0.00,VWS V14.01,2013-04-25 07:28:00,
2013-04-25 02:34:00,41.0,22.8,29.79,SW,217,8.7,11.9,48,0.00,,OVC065,0.00,VWS V14.01,2013-04-25 07:34:00,
2013-04-25 02:39:00,40.8,23.6,29.79,SW,234,8.3,11.0,50,0.00,,OVC065,0.00,VWS V14.01,2013-04-25 07:39:00,
2013-04-25 02:44:00,40.6,23.9,29.79,WSW,249,8.3,8.3,51,0.00,,OVC065,0.00,VWS V14.01,2013-04-25 07:44:00,
2013-04-25 02:49:00,40.6,23.5,29.79,SW,228,5.8,8.1,50,0.00,,OVC065,0.00,VWS V14.01,2013-04-25 07:49:00,
2013-04-25 02:54:00,40.6,23.5,29.79,West,271,6.3,7.6,50,0.00,,OVC065,0.00,VWS V14.01,2013-04-25 07:54:00,
2013-04-25 03:00:00,40.6,23.5,29.79,WSW,257,5.4,11.0,50,0.00,,OVC065,0.00,VWS V14.01,2013-04-25 08:00:00,
2013-04-25 03:05:00,40.5,22.3,29.79,WSW,244,6.3,8.7,48,0.00,,OVC065,0.00,VWS V14.01,2013-04-25 08:05:00,
2013-04-25 03:11:00,40.5,21.8,29.79,WSW,247,9.6,13.2,47,0.00,,OVC065,0.00,VWS V14.01,2013-04-25 08:11:00,
2013-04-25 03:17:00,40.3,20.6,29.79,NW,310,3.1,5.8,45,0.00,,OVC065,0.00,VWS V14.01,2013-04-25 08:17:00,
2013-04-25 03:22:00,40.3,20.6,29.79,WSW,254,5.4,10.5,45,0.00,,OVC065,0.00,VWS V14.01,2013-04-25 08:22:00,
2013-04-25 03:27:00,40.3,20.1,29.79,WNW,282,3.6,5.4,44,0.00,,OVC065,0.00,VWS V14.01,2013-04-25 08:27:00,
2013-04-25 03:32:00,39.9,20.3,29.79,WSW,245,4.0,5.8,45,0.00,,OVC065,0.00,VWS V14.01,2013-04-25 08:32:00,
2013-04-25 03:38:00,39.9,20.3,29.79,West,279,5.8,8.3,45,0.00,,OVC065,0.00,VWS V14.01,2013-04-25 08:38:00,
2013-04-25 03:45:00,39.7,20.7,29.79,NW,326,17.4,17.4,46,0.00,,OVC065,0.00,VWS V14.01,2013-04-25 08:45:00,
2013-04-25 03:50:00,37.9,18.5,29.79,WNW,298,12.8,12.8,45,0.00,,OVC065,0.00,VWS V14.01,2013-04-25 08:50:00,
2013-04-25 03:55:00,36.7,19.8,29.79,NW,317,9.6,10.1,50,0.00,,OVC065,0.00,VWS V14.01,2013-04-25 08:55:00,
2013-04-25 04:01:00,36.0,20.5,29.82,WNW,301,9.6,10.1,53,0.00,,OVC110,0.00,VWS V14.01,2013-04-25 09:01:00,
2013-04-25 04:06:00,35.6,21.9,29.82,NW,313,10.1,10.1,57,0.00,,OVC110,0.00,VWS V14.01,2013-04-25 09:06:00,
2013-04-25 04:12:00,35.4,22.9,29.82,NW,307,7.6,8.3,60,0.00,,OVC110,0.00,VWS V14.01,2013-04-25 09:12:00,
2013-04-25 04:18:00,35.4,23.7,29.82,NW,313,5.4,10.1,62,0.00,,OVC110,0.00,VWS V14.01,2013-04-25 09:18:00,
2013-04-25 04:23:00,35.4,24.5,29.82,WNW,300,6.3,7.6,64,0.00,,OVC110,0.00,VWS V14.01,2013-04-25 09:23:00,
2013-04-25 04:29:00,35.6,25.0,29.82,NW,313,4.5,5.4,65,0.00,,OVC110,0.00,VWS V14.01,2013-04-25 09:29:00,
2013-04-25 04:34:00,35.6,25.4,29.82,NW,304,6.3,7.6,66,0.00,,OVC110,0.00,VWS V14.01,2013-04-25 09:34:00,
2013-04-25 04:40:00,35.8,25.9,29.82,WNW,300,4.0,4.9,67,0.00,,OVC110,0.00,VWS V14.01,2013-04-25 09:40:00,
2013-04-25 04:45:00,35.8,26.3,29.82,WNW,299,4.0,4.9,68,0.00,,OVC110,0.00,VWS V14.01,2013-04-25 09:45:00,
2013-04-25 04:51:00,35.8,26.3,29.82,West,274,6.3,6.3,68,0.00,,OVC110,0.00,VWS V14.01,2013-04-25 09:51:00,
2013-04-25 04:56:00,36.0,26.8,29.82,WNW,290,4.9,5.8,69,0.00,,OVC110,0.00,VWS V14.01,2013-04-25 09:56:00,
2013-04-25 05:01:00,36.0,26.8,29.82,WNW,294,5.8,5.8,69,0.00,,OVC039,0.00,VWS V14.01,2013-04-25 10:01:00,
2013-04-25 05:07:00,36.1,27.3,29.82,WNW,300,6.7,8.1,70,0.00,,OVC039,0.00,VWS V14.01,2013-04-25 10:07:00,
2013-04-25 05:12:00,36.1,27.3,29.82,NW,304,5.4,8.1,70,0.00,,OVC039,0.00,VWS V14.01,2013-04-25 10:12:00,
2013-04-25 05:18:00,36.1,27.7,29.82,NW,326,5.4,11.0,71,0.00,,OVC039,0.00,VWS V14.01,2013-04-25 10:18:00,
2013-04-25 05:23:00,36.0,27.1,29.82,NW,311,5.4,6.7,70,0.00,,OVC039,0.00,VWS V14.01,2013-04-25 10:23:00,
2013-04-25 05:28:00,36.1,27.3,29.82,WNW,302,5.8,5.8,70,0.00,,OVC039,0.00,VWS V14.01,2013-04-25 10:28:00,
2013-04-25 05:33:00,36.1,27.3,29.85,NW,312,5.8,9.2,70,0.00,,OVC039,0.00,VWS V14.01,2013-04-25 10:33:00,
2013-04-25 05:38:00,36.1,27.0,29.85,WNW,294,6.3,8.3,69,0.00,,OVC039,0.00,VWS V14.01,2013-04-25 10:38:00,
2013-04-25 05:44:00,36.1,26.6,29.85,NW,304,6.3,8.7,68,0.00,,OVC039,0.00,VWS V14.01,2013-04-25 10:44:00,
2013-04-25 05:49:00,35.8,25.2,29.85,NW,319,6.3,8.7,65,0.00,,OVC039,0.00,VWS V14.01,2013-04-25 10:49:00,
2013-04-25 05:54:00,35.6,24.3,29.85,NW,320,6.3,6.3,63,0.00,,OVC039,0.00,VWS V14.01,2013-04-25 10:54:00,
2013-04-25 06:00:00,35.4,23.7,29.85,NW,315,8.1,8.1,62,0.00,,OVC039,0.00,VWS V14.01,2013-04-25 11:00:00,
2013-04-25 06:05:00,35.2,23.1,29.85,NW,306,5.4,8.1,61,0.00,,OVC055,0.00,VWS V14.01,2013-04-25 11:05:00,
2013-04-25 06:11:00,35.1,23.0,29.85,NW,319,4.9,6.3,61,0.00,,OVC055,0.00,VWS V14.01,2013-04-25 11:11:00,
2013-04-25 06:16:00,34.9,22.8,29.85,NW,304,5.4,6.7,61,0.00,,OVC055,0.00,VWS V14.01,2013-04-25 11:16:00,
2013-04-25 06:21:00,34.9,22.8,29.85,NW,307,5.4,5.8,61,0.00,,OVC055,0.00,VWS V14.01,2013-04-25 11:21:00,
2013-04-25 06:26:00,34.9,22.8,29.85,NW,306,7.6,7.6,61,0.00,,OVC055,0.00,VWS V14.01,2013-04-25 11:26:00,
2013-04-25 06:31:00,34.9,23.2,29.88,NW,308,7.6,8.3,62,0.00,,OVC055,0.00,VWS V14.01,2013-04-25 11:31:00,
2013-04-25 06:36:00,34.9,23.2,29.88,NW,309,5.4,6.3,62,0.00,,OVC055,0.00,VWS V14.01,2013-04-25 11:36:00,
2013-04-25 06:43:00,34.9,23.6,29.88,WNW,302,5.4,8.1,63,0.00,,OVC055,0.00,VWS V14.01,2013-04-25 11:43:00,
2013-04-25 06:49:00,34.9,24.0,29.88,NNW,334,5.8,5.8,64,0.00,,OVC055,0.00,VWS V14.01,2013-04-25 11:49:00,
2013-04-25 06:54:00,35.1,24.5,29.88,NW,317,6.3,8.1,65,0.00,,OVC055,0.00,VWS V14.01,2013-04-25 11:54:00,
2013-04-25 07:00:00,35.4,25.2,29.88,NW,304,5.4,5.4,66,0.00,,OVC055,0.00,VWS V14.01,2013-04-25 12:00:00,
2013-04-25 07:05:00,35.4,25.2,29.88,North,357,5.8,8.1,66,0.00,,OVC055,0.00,VWS V14.01,2013-04-25 12:05:00,
2013-04-25 07:10:00,35.6,25.7,29.88,WNW,302,5.8,8.3,67,0.00,,OVC055,0.00,VWS V14.01,2013-04-25 12:10:00,
2013-04-25 07:16:00,35.8,25.9,29.88,NW,321,11.0,11.0,67,0.00,,OVC055,0.00,VWS V14.01,2013-04-25 12:16:00,
2013-04-25 07:21:00,36.1,26.3,29.88,NW,307,6.3,10.5,67,0.00,,OVC055,0.00,VWS V14.01,2013-04-25 12:21:00,
2013-04-25 07:27:00,36.3,25.7,29.88,NW,304,8.7,10.5,65,0.00,,OVC055,0.00,VWS V14.01,2013-04-25 12:27:00,
2013-04-25 07:32:00,36.5,25.1,29.88,NW,308,8.7,12.8,63,0.00,,OVC055,0.00,VWS V14.01,2013-04-25 12:32:00,
2013-04-25 07:37:00,36.7,24.1,29.88,WNW,299,6.3,8.7,60,0.00,,OVC055,0.00,VWS V14.01,2013-04-25 12:37:00,
2013-04-25 07:43:00,37.0,23.6,29.88,NW,322,8.3,8.7,58,0.00,,OVC055,0.00,VWS V14.01,2013-04-25 12:43:00,
2013-04-25 07:48:00,37.4,23.6,29.91,WNW,292,5.8,10.5,57,0.00,,OVC055,0.00,VWS V14.01,2013-04-25 12:48:00,
2013-04-25 07:53:00,37.6,23.3,29.91,WNW,302,5.4,5.8,56,0.00,,OVC055,0.00,VWS V14.01,2013-04-25 12:53:00,
2013-04-25 07:58:00,37.8,22.2,29.91,WNW,283,5.8,9.6,53,0.00,,OVC055,0.00,VWS V14.01,2013-04-25 12:58:00,
2013-04-25 08:03:00,37.9,21.9,29.91,WNW,299,8.1,8.1,52,0.00,,SCT023,0.00,VWS V14.01,2013-04-25 13:03:00,
2013-04-25 08:09:00,37.9,21.0,29.91,NW,308,7.6,8.1,50,0.00,,SCT023,0.00,VWS V14.01,2013-04-25 13:09:00,
2013-04-25 08:15:00,38.1,21.1,29.91,WNW,295,8.7,10.5,50,0.00,,SCT023,0.00,VWS V14.01,2013-04-25 13:15:00,
2013-04-25 08:20:00,38.3,20.8,29.91,WNW,284,7.6,12.3,49,0.00,,SCT023,0.00,VWS V14.01,2013-04-25 13:20:00,
2013-04-25 08:26:00,38.5,21.0,29.91,NW,315,7.2,7.6,49,0.00,,SCT023,0.00,VWS V14.01,2013-04-25 13:26:00,
2013-04-25 08:31:00,38.7,21.2,29.93,WNW,297,8.3,12.8,49,0.00,,SCT023,0.00,VWS V14.01,2013-04-25 13:31:00,
2013-04-25 08:36:00,38.8,19.8,29.93,NW,310,5.8,11.0,46,0.00,,SCT023,0.00,VWS V14.01,2013-04-25 13:36:00,
2013-04-25 08:41:00,38.7,18.1,29.93,NW,311,11.9,11.9,43,0.00,,SCT023,0.00,VWS V14.01,2013-04-25 13:41:00,
2013-04-25 08:46:00,38.5,17.9,29.93,West,272,8.3,15.9,43,0.00,,SCT023,0.00,VWS V14.01,2013-04-25 13:46:00,
2013-04-25 08:52:00,39.0,19.5,29.93,WNW,300,12.8,12.8,45,0.00,,SCT023,0.00,VWS V14.01,2013-04-25 13:52:00,
2013-04-25 08:57:00,39.2,17.5,29.93,NW,307,11.0,11.0,41,0.00,,SCT023,0.00,VWS V14.01,2013-04-25 13:57:00,
2013-04-25 09:02:00,39.0,17.3,29.93,WNW,300,8.3,11.0,41,0.00,,BKN023,0.00,VWS V14.01,2013-04-25 14:02:00,
2013-04-25 09:07:00,39.2,17.5,29.93,NW,324,7.6,8.7,41,0.00,,BKN023,0.00,VWS V14.01,2013-04-25 14:07:00,
2013-04-25 09:12:00,39.6,18.4,29.93,NW,312,8.7,12.3,42,0.00,,BKN023,0.00,VWS V14.01,2013-04-25 14:12:00,
2013-04-25 09:18:00,39.7,18.0,29.93,WNW,298,5.4,7.6,41,0.00,,BKN023,0.00,VWS V14.01,2013-04-25 14:18:00,
2013-04-25 09:23:00,39.9,17.6,29.93,NNW,333,7.6,10.5,40,0.00,,BKN023,0.00,VWS V14.01,2013-04-25 14:23:00,
2013-04-25 09:29:00,39.7,16.8,29.96,NW,323,14.1,14.1,39,0.00,,BKN023,0.00,VWS V14.01,2013-04-25 14:29:00,
2013-04-25 09:34:00,39.9,16.4,29.96,WNW,286,10.5,11.0,38,0.00,,BKN023,0.00,VWS V14.01,2013-04-25 14:34:00,
2013-04-25 09:40:00,40.1,14.7,29.96,NW,306,8.7,21.9,35,0.00,,BKN023,0.00,VWS V14.01,2013-04-25 14:40:00,
2013-04-25 09:45:00,40.3,16.1,29.96,WNW,302,10.1,14.1,37,0.00,,BKN023,0.00,VWS V14.01,2013-04-25 14:45:00,
2013-04-25 09:51:00,40.3,16.7,29.96,NW,314,8.3,11.0,38,0.00,,BKN023,0.00,VWS V14.01,2013-04-25 14:51:00,
2013-04-25 09:57:00,40.6,17.0,29.96,NW,325,12.3,15.0,38,0.00,,BKN023,0.00,VWS V14.01,2013-04-25 14:57:00,
2013-04-25 10:02:00,40.6,15.8,29.96,NW,312,11.0,12.8,36,0.00,,BKN030,0.00,VWS V14.01,2013-04-25 15:02:00,
2013-04-25 10:08:00,40.6,17.0,29.96,WNW,295,11.0,11.0,38,0.00,,BKN030,0.00,VWS V14.01,2013-04-25 15:08:00,
2013-04-25 10:14:00,41.2,16.3,29.96,West,278,8.1,11.0,36,0.00,,BKN030,0.00,VWS V14.01,2013-04-25 15:14:00,
2013-04-25 10:19:00,41.4,15.1,29.96,WNW,299,10.1,15.4,34,0.00,,BKN030,0.00,VWS V14.01,2013-04-25 15:19:00,
2013-04-25 10:25:00,41.7,14.8,29.96,NNW,336,10.1,12.8,33,0.00,,BKN030,0.00,VWS V14.01,2013-04-25 15:25:00,
2013-04-25 10:30:00,41.7,16.1,29.99,NW,307,10.1,10.5,35,0.00,,BKN030,0.00,VWS V14.01,2013-04-25 15:30:00,
2013-04-25 10:35:00,42.1,15.1,29.99,NW,318,14.5,14.5,33,0.00,,BKN030,0.00,VWS V14.01,2013-04-25 15:35:00,
2013-04-25 10:40:00,42.3,14.5,29.99,NW,316,8.7,13.2,32,0.00,,BKN030,0.00,VWS V14.01,2013-04-25 15:40:00,
2013-04-25 10:45:00,42.3,15.2,29.99,NW,312,12.3,12.3,33,0.00,,BKN030,0.00,VWS V14.01,2013-04-25 15:45:00,
2013-04-25 10:51:00,41.7,14.8,29.99,WNW,300,7.6,10.5,33,0.00,,BKN030,0.00,VWS V14.01,2013-04-25 15:51:00,
2013-04-25 10:56:00,41.9,15.6,29.99,WNW,297,10.1,10.1,34,0.00,,BKN030,0.00,VWS V14.01,2013-04-25 15:56:00,
2013-04-25 11:01:00,42.3,15.9,29.99,WNW,298,6.3,6.3,34,0.00,,BKN030,0.00,VWS V14.01,2013-04-25 16:01:00,
2013-04-25 11:06:00,43.2,14.6,29.99,WNW,298,5.4,8.7,31,0.00,,BKN030,0.00,VWS V14.01,2013-04-25 16:06:00,
2013-04-25 11:11:00,43.9,15.2,29.99,WNW,300,8.1,10.5,31,0.00,,BKN030,0.00,VWS V14.01,2013-04-25 16:11:00,
2013-04-25 11:17:00,43.9,15.2,29.99,NW,314,6.7,11.0,31,0.00,,BKN030,0.00,VWS V14.01,2013-04-25 16:17:00,
2013-04-25 11:22:00,43.5,14.9,29.99,WNW,290,5.4,6.7,31,0.00,,BKN030,0.00,VWS V14.01,2013-04-25 16:22:00,
2013-04-25 11:27:00,43.3,14.0,29.99,WNW,289,14.1,14.5,30,0.00,,BKN030,0.00,VWS V14.01,2013-04-25 16:27:00,
2013-04-25 11:32:00,43.3,14.0,29.99,WNW,298,11.0,13.2,30,0.00,,BKN030,0.00,VWS V14.01,2013-04-25 16:32:00,
2013-04-25 11:37:00,43.7,14.3,29.99,WSW,252,5.8,10.5,30,0.00,,BKN030,0.00,VWS V14.01,2013-04-25 16:37:00,
2013-04-25 11:43:00,44.2,14.0,29.99,WNW,295,4.9,10.1,29,0.00,,BKN030,0.00,VWS V14.01,2013-04-25 16:43:00,
2013-04-25 11:48:00,44.6,14.3,29.99,WNW,302,10.5,10.5,29,0.00,,BKN030,0.00,VWS V14.01,2013-04-25 16:48:00,
2013-04-25 11:54:00,44.2,14.0,29.99,NW,304,8.7,10.5,29,0.00,,BKN030,0.00,VWS V14.01,2013-04-25 16:54:00,
2013-04-25 12:00:00,44.2,14.0,29.99,NW,309,8.7,10.1,29,0.00,,BKN030,0.00,VWS V14.01,2013-04-25 17:00:00,
2013-04-25 12:05:00,44.4,14.2,29.99,NW,314,5.4,6.3,29,0.00,,SCT034,0.00,VWS V14.01,2013-04-25 17:05:00,
2013-04-25 12:11:00,44.8,13.7,29.99,WNW,295,8.7,11.9,28,0.00,,SCT034,0.00,VWS V14.01,2013-04-25 17:11:00,
2013-04-25 12:16:00,46.0,14.8,29.99,SW,216,10.1,10.1,28,0.00,,SCT034,0.00,VWS V14.01,2013-04-25 17:16:00,
2013-04-25 12:21:00,46.6,15.2,29.99,WNW,293,6.3,6.3,28,0.00,,SCT034,0.00,VWS V14.01,2013-04-25 17:21:00,
2013-04-25 12:26:00,46.8,14.6,29.99,NW,318,8.1,10.5,27,0.00,,SCT034,0.00,VWS V14.01,2013-04-25 17:26:00,
2013-04-25 12:32:00,46.0,14.8,30.02,WNW,285,3.6,10.1,28,0.00,,SCT034,0.00,VWS V14.01,2013-04-25 17:32:00,
2013-04-25 12:37:00,45.5,14.3,30.02,West,265,7.6,8.1,28,0.00,,SCT034,0.00,VWS V14.01,2013-04-25 17:37:00,
2013-04-25 12:42:00,45.7,14.5,30.02,NW,305,7.6,7.6,28,0.00,,SCT034,0.00,VWS V14.01,2013-04-25 17:42:00,
2013-04-25 12:48:00,46.2,14.9,30.02,WNW,291,7.6,10.1,28,0.00,,SCT034,0.00,VWS V14.01,2013-04-25 17:48:00,
2013-04-25 12:53:00,46.8,14.6,30.02,WNW,289,5.8,8.1,27,0.00,,SCT034,0.00,VWS V14.01,2013-04-25 17:53:00,
2013-04-25 12:58:00,46.6,14.4,30.02,WSW,243,3.6,6.3,27,0.00,,SCT034,0.00,VWS V14.01,2013-04-25 17:58:00,
2013-04-25 13:03:00,46.9,14.7,30.02,West,279,3.6,8.3,27,0.00,,BKN048,0.00,VWS V14.01,2013-04-25 18:03:00,
2013-04-25 13:09:00,46.8,14.6,30.02,NW,311,3.6,8.1,27,0.00,,BKN048,0.00,VWS V14.01,2013-04-25 18:09:00,
2013-04-25 13:15:00,46.4,14.2,30.05,NW,312,13.2,13.2,27,0.00,,BKN048,0.00,VWS V14.01,2013-04-25 18:15:00,
2013-04-25 13:20:00,46.9,14.7,30.05,WNW,299,3.6,5.4,27,0.00,,BKN048,0.00,VWS V14.01,2013-04-25 18:20:00,
2013-04-25 13:25:00,46.9,14.7,30.05,NNW,345,11.0,11.0,27,0.00,,BKN048,0.00,VWS V14.01,2013-04-25 18:25:00,
2013-04-25 13:31:00,46.6,14.4,30.05,NW,326,6.3,12.8,27,0.00,,BKN048,0.00,VWS V14.01,2013-04-25 18:31:00,
2013-04-25 13:37:00,46.6,14.4,30.05,WNW,297,5.4,6.3,27,0.00,,BKN048,0.00,VWS V14.01,2013-04-25 18:37:00,
2013-04-25 13:42:00,46.9,14.7,30.05,NNW,338,7.6,11.4,27,0.00,,BKN048,0.00,VWS V14.01,2013-04-25 18:42:00,
2013-04-25 13:48:00,46.2,14.1,30.05,WNW,300,4.9,5.4,27,0.00,,BKN048,0.00,VWS V14.01,2013-04-25 18:48:00,
2013-04-25 13:53:00,46.4,14.2,30.05,WSW,256,7.2,7.2,27,0.00,,BKN048,0.00,VWS V14.01,2013-04-25 18:53:00,
2013-04-25 13:58:00,47.3,15.0,30.05,WSW,258,3.1,7.6,27,0.00,,BKN048,0.00,VWS V14.01,2013-04-25 18:58:00,
2013-04-25 14:03:00,48.0,15.6,30.08,West,280,2.7,5.4,27,0.00,,BKN060,0.00,VWS V14.01,2013-04-25 19:03:00,
2013-04-25 14:09:00,47.8,15.5,30.08,West,259,5.4,5.4,27,0.00,,BKN060,0.00,VWS V14.01,2013-04-25 19:09:00,
2013-04-25 14:14:00,48.6,15.2,30.08,WNW,292,5.4,5.8,26,0.00,,BKN060,0.00,VWS V14.01,2013-04-25 19:14:00,
2013-04-25 14:20:00,49.1,15.7,30.08,NW,312,10.5,12.3,26,0.00,,BKN060,0.00,VWS V14.01,2013-04-25 19:20:00,
2013-04-25 14:25:00,48.9,13.7,30.08,NW,318,8.7,12.3,24,0.00,,BKN060,0.00,VWS V14.01,2013-04-25 19:25:00,
2013-04-25 14:31:00,49.3,14.0,30.05,WNW,303,8.7,8.7,24,0.00,,BKN060,0.00,VWS V14.01,2013-04-25 19:31:00,
2013-04-25 14:36:00,49.1,13.9,30.05,WNW,293,6.3,8.1,24,0.00,,BKN060,0.00,VWS V14.01,2013-04-25 19:36:00,
2013-04-25 14:41:00,48.6,13.4,30.05,WNW,297,5.8,6.3,24,0.00,,BKN060,0.00,VWS V14.01,2013-04-25 19:41:00,
2013-04-25 14:46:00,48.0,15.6,30.05,WNW,303,5.4,6.3,27,0.00,,BKN060,0.00,VWS V14.01,2013-04-25 19:46:00,
2013-04-25 14:52:00,48.7,13.6,30.05,NW,319,7.6,7.6,24,0.00,,BKN060,0.00,VWS V14.01,2013-04-25 19:52:00,
2013-04-25 14:58:00,48.6,13.4,30.05,NNW,333,8.1,10.1,24,0.00,,BKN060,0.00,VWS V14.01,2013-04-25 19:58:00,
2013-04-25 15:03:00,48.4,13.3,30.05,SW,216,8.1,8.7,24,0.00,,SCT060,0.00,VWS V14.01,2013-04-25 20:03:00,
2013-04-25 15:09:00,49.3,14.0,30.05,NW,325,6.3,8.3,24,0.00,,SCT060,0.00,VWS V14.01,2013-04-25 20:09:00,
2013-04-25 15:14:00,48.9,13.7,30.05,NW,306,5.8,8.3,24,0.00,,SCT060,0.00,VWS V14.01,2013-04-25 20:14:00,
2013-04-25 15:19:00,48.2,13.1,30.05,NW,326,5.4,7.6,24,0.00,,SCT060,0.00,VWS V14.01,2013-04-25 20:19:00,
2013-04-25 15:24:00,47.8,12.8,30.05,SW,224,3.6,5.4,24,0.00,,SCT060,0.00,VWS V14.01,2013-04-25 20:24:00,
2013-04-25 15:29:00,48.2,13.1,30.08,WNW,293,3.6,7.6,24,0.00,,SCT060,0.00,VWS V14.01,2013-04-25 20:29:00,
2013-04-25 15:34:00,48.2,13.1,30.08,SW,232,8.1,10.1,24,0.00,,SCT060,0.00,VWS V14.01,2013-04-25 20:34:00,
2013-04-25 15:39:00,48.9,10.7,30.08,WSW,253,5.8,8.3,21,0.00,,SCT060,0.00,VWS V14.01,2013-04-25 20:39:00,
2013-04-25 15:44:00,48.9,13.7,30.08,WNW,294,3.1,8.7,24,0.00,,SCT060,0.00,VWS V14.01,2013-04-25 20:44:00,
2013-04-25 15:49:00,49.1,10.9,30.08,SSW,208,8.3,8.7,21,0.00,,SCT060,0.00,VWS V14.01,2013-04-25 20:49:00,
2013-04-25 15:55:00,48.7,10.6,30.08,NNW,330,5.8,5.8,21,0.00,,SCT060,0.00,VWS V14.01,2013-04-25 20:55:00,
2013-04-25 16:00:00,49.3,11.0,30.05,SW,229,6.3,8.7,21,0.00,,SCT060,0.00,VWS V14.01,2013-04-25 21:00:00,
2013-04-25 16:06:00,49.8,11.5,30.05,WSW,255,5.4,5.8,21,0.00,,SCT060,0.00,VWS V14.01,2013-04-25 21:06:00,
2013-04-25 16:12:00,50.2,11.8,30.05,NW,314,6.3,10.1,21,0.00,,SCT060,0.00,VWS V14.01,2013-04-25 21:12:00,
2013-04-25 16:17:00,50.2,11.8,30.05,WSW,244,7.6,7.6,21,0.00,,SCT060,0.00,VWS V14.01,2013-04-25 21:17:00,
2013-04-25 16:23:00,50.0,11.6,30.05,West,268,4.0,7.6,21,0.00,,SCT060,0.00,VWS V14.01,2013-04-25 21:23:00,
2013-04-25 16:28:00,50.5,12.1,30.05,WNW,290,4.9,5.8,21,0.00,,SCT060,0.00,VWS V14.01,2013-04-25 21:28:00,
2013-04-25 16:33:00,50.5,12.1,30.05,West,277,6.3,6.3,21,0.00,,SCT060,0.00,VWS V14.01,2013-04-25 21:33:00,
2013-04-25 16:39:00,50.7,12.2,30.05,WSW,248,10.1,10.1,21,0.00,,SCT060,0.00,VWS V14.01,2013-04-25 21:39:00,
2013-04-25 16:45:00,50.0,11.6,30.08,NW,309,5.4,5.8,21,0.00,,SCT060,0.00,VWS V14.01,2013-04-25 21:45:00,
2013-04-25 16:51:00,49.5,11.2,30.08,SW,236,5.8,12.8,21,0.00,,SCT060,0.00,VWS V14.01,2013-04-25 21:51:00,
2013-04-25 16:56:00,49.6,11.3,30.08,WSW,246,5.4,8.7,21,0.00,,SCT060,0.00,VWS V14.01,2013-04-25 21:56:00,
2013-04-25 17:01:00,50.0,11.6,30.08,WSW,239,8.1,10.5,21,0.00,,SCT060,0.00,VWS V14.01,2013-04-25 22:01:00,
2013-04-25 17:07:00,50.0,11.6,30.08,SSW,205,10.1,11.0,21,0.00,,SCT060,0.00,VWS V14.01,2013-04-25 22:07:00,
2013-04-25 17:12:00,49.8,11.5,30.08,West,268,6.3,6.3,21,0.00,,SCT060,0.00,VWS V14.01,2013-04-25 22:12:00,
2013-04-25 17:18:00,49.8,11.5,30.08,SW,225,5.8,5.8,21,0.00,,SCT060,0.00,VWS V14.01,2013-04-25 22:18:00,
2013-04-25 17:23:00,50.5,12.1,30.08,SSW,198,4.0,6.3,21,0.00,,SCT060,0.00,VWS V14.01,2013-04-25 22:23:00,
2013-04-25 17:28:00,50.9,12.4,30.08,West,268,8.3,8.3,21,0.00,,SCT060,0.00,VWS V14.01,2013-04-25 22:28:00,
2013-04-25 17:33:00,50.9,12.4,30.08,West,271,5.4,9.2,21,0.00,,SCT060,0.00,VWS V14.01,2013-04-25 22:33:00,
2013-04-25 17:39:00,49.8,11.5,30.08,South,181,5.4,8.7,21,0.00,,SCT060,0.00,VWS V14.01,2013-04-25 22:39:00,
2013-04-25 17:44:00,49.8,11.5,30.08,SSW,207,4.0,8.1,21,0.00,,SCT060,0.00,VWS V14.01,2013-04-25 22:44:00,
2013-04-25 17:50:00,49.6,11.3,30.08,West,272,5.8,8.7,21,0.00,,SCT060,0.00,VWS V14.01,2013-04-25 22:50:00,
2013-04-25 17:55:00,49.8,11.5,30.08,WSW,244,4.0,6.3,21,0.00,,SCT060,0.00,VWS V14.01,2013-04-25 22:55:00,
2013-04-25 18:01:00,49.3,11.0,30.05,West,270,4.9,5.4,21,0.00,,SCT060,0.00,VWS V14.01,2013-04-25 23:01:00,
2013-04-25 18:06:00,48.9,10.7,30.05,SW,218,9.6,10.5,21,0.00,,SCT060,0.00,VWS V14.01,2013-04-25 23:06:00,
2013-04-25 18:11:00,48.9,10.7,30.05,West,271,7.6,7.6,21,0.00,,SCT060,0.00,VWS V14.01,2013-04-25 23:11:00,
2013-04-25 18:16:00,48.7,10.6,30.08,SSW,210,4.0,10.1,21,0.00,,SCT060,0.00,VWS V14.01,2013-04-25 23:16:00,
2013-04-25 18:22:00,48.6,10.4,30.08,SW,217,10.1,10.1,21,0.00,,SCT060,0.00,VWS V14.01,2013-04-25 23:22:00,
2013-04-25 18:28:00,48.6,10.4,30.08,SSW,202,8.3,8.3,21,0.00,,SCT060,0.00,VWS V14.01,2013-04-25 23:28:00,
2013-04-25 18:33:00,48.6,10.4,30.08,SSW,208,5.8,5.8,21,0.00,,SCT060,0.00,VWS V14.01,2013-04-25 23:33:00,
2013-04-25 18:38:00,48.0,11.0,30.08,SSW,211,8.3,9.6,22,0.00,,SCT060,0.00,VWS V14.01,2013-04-25 23:38:00,
2013-04-25 18:44:00,48.0,11.0,30.08,SW,232,6.3,8.3,22,0.00,,SCT060,0.00,VWS V14.01,2013-04-25 23:44:00,
2013-04-25 18:49:00,47.8,10.9,30.08,West,273,4.9,8.1,22,0.00,,SCT060,0.00,VWS V14.01,2013-04-25 23:49:00,
2013-04-25 18:54:00,47.8,10.9,30.08,SW,236,5.8,8.3,22,0.00,,SCT060,0.00,VWS V14.01,2013-04-25 23:54:00,
2013-04-25 18:59:00,47.7,10.7,30.08,WSW,248,5.8,6.3,22,0.00,,SCT060,0.00,VWS V14.01,2013-04-25 23:59:00,
2013-04-25 19:04:00,47.5,10.6,30.08,SW,234,7.6,8.1,22,0.00,,SCT065,0.00,VWS V14.01,2013-04-26 00:04:00,
2013-04-25 19:10:00,47.3,10.4,30.08,WSW,245,3.6,8.1,22,0.00,,SCT065,0.00,VWS V14.01,2013-04-26 00:10:00,
2013-04-25 19:15:00,47.3,10.4,30.08,WSW,238,3.1,5.4,22,0.00,,SCT065,0.00,VWS V14.01,2013-04-26 00:15:00,
2013-04-25 19:21:00,47.1,10.2,30.08,SW,234,4.9,4.9,22,0.00,,SCT065,0.00,VWS V14.01,2013-04-26 00:21:00,
2013-04-25 19:26:00,47.1,10.2,30.08,SSW,208,0.0,0.0,22,0.00,,SCT065,0.00,VWS V14.01,2013-04-26 00:26:00,
2013-04-25 19:32:00,46.8,9.9,30.08,SSW,203,3.1,4.9,22,0.00,,SCT065,0.00,VWS V14.01,2013-04-26 00:32:00,
2013-04-25 19:38:00,46.4,9.6,30.08,SW,221,7.6,7.6,22,0.00,,SCT065,0.00,VWS V14.01,2013-04-26 00:38:00,
2013-04-25 19:43:00,46.2,9.5,30.08,SW,224,2.2,4.0,22,0.00,,SCT065,0.00,VWS V14.01,2013-04-26 00:43:00,
2013-04-25 19:48:00,46.0,9.3,30.08,WSW,248,3.6,3.6,22,0.00,,SCT065,0.00,VWS V14.01,2013-04-26 00:48:00,
2013-04-25 19:53:00,45.7,9.0,30.08,SW,228,2.7,3.6,22,0.00,,SCT065,0.00,VWS V14.01,2013-04-26 00:53:00,
2013-04-25 19:59:00,45.3,11.6,30.08,WSW,238,0.0,3.6,25,0.00,,SCT065,0.00,VWS V14.01,2013-04-26 00:59:00,
2013-04-25 20:04:00,45.1,11.4,30.08,WSW,237,0.0,0.0,25,0.00,,SCT055,0.00,VWS V14.01,2013-04-26 01:04:00,
2013-04-25 20:10:00,44.8,11.1,30.08,SW,234,0.0,0.0,25,0.00,,SCT055,0.00,VWS V14.01,2013-04-26 01:10:00,
2013-04-25 20:15:00,44.6,11.0,30.08,SW,235,0.0,0.0,25,0.00,,SCT055,0.00,VWS V14.01,2013-04-26 01:15:00,
2013-04-25 20:21:00,44.2,10.7,30.08,SW,235,0.0,0.0,25,0.00,,SCT055,0.00,VWS V14.01,2013-04-26 01:21:00,
2013-04-25 20:27:00,43.9,10.4,30.08,SW,234,0.0,0.0,25,0.00,,SCT055,0.00,VWS V14.01,2013-04-26 01:27:00,
2013-04-25 20:32:00,43.5,10.0,30.08,SW,235,0.0,0.0,25,0.00,,SCT055,0.00,VWS V14.01,2013-04-26 01:32:00,
2013-04-25 20:37:00,43.2,9.7,30.08,SW,234,0.0,0.0,25,0.00,,SCT055,0.00,VWS V14.01,2013-04-26 01:37:00,
2013-04-25 20:43:00,42.8,9.4,30.08,SW,234,0.0,0.0,25,0.00,,SCT055,0.00,VWS V14.01,2013-04-26 01:43:00,
2013-04-25 20:49:00,42.4,10.0,30.08,SW,235,0.0,0.0,26,0.00,,SCT055,0.00,VWS V14.01,2013-04-26 01:49:00,
2013-04-25 20:54:00,42.1,11.3,30.08,SW,234,0.0,0.0,28,0.00,,SCT055,0.00,VWS V14.01,2013-04-26 01:54:00,
2013-04-25 21:00:00,42.1,11.3,30.11,SW,234,0.0,0.0,28,0.00,,SCT055,0.00,VWS V14.01,2013-04-26 02:00:00,
2013-04-25 21:05:00,42.1,11.3,30.11,SW,229,0.0,0.0,28,0.00,,CLR,0.00,VWS V14.01,2013-04-26 02:05:00,
2013-04-25 21:10:00,42.1,11.3,30.11,SW,230,0.0,0.0,28,0.00,,CLR,0.00,VWS V14.01,2013-04-26 02:10:00,
2013-04-25 21:15:00,42.1,11.3,30.11,SW,230,0.0,0.0,28,0.00,,CLR,0.00,VWS V14.01,2013-04-26 02:15:00,
2013-04-25 21:20:00,41.9,11.2,30.11,SW,226,0.0,0.0,28,0.00,,CLR,0.00,VWS V14.01,2013-04-26 02:20:00,
2013-04-25 21:25:00,41.5,10.9,30.11,SW,226,0.0,0.0,28,0.00,,CLR,0.00,VWS V14.01,2013-04-26 02:25:00,
2013-04-25 21:31:00,41.2,10.6,30.11,SW,226,0.0,0.0,28,0.00,,CLR,0.00,VWS V14.01,2013-04-26 02:31:00,
2013-04-25 21:37:00,40.8,11.0,30.11,SW,226,0.0,0.0,29,0.00,,CLR,0.00,VWS V14.01,2013-04-26 02:37:00,
2013-04-25 21:42:00,40.5,10.7,30.11,SW,226,0.0,0.0,29,0.00,,CLR,0.00,VWS V14.01,2013-04-26 02:42:00,
2013-04-25 21:47:00,40.3,10.6,30.11,SW,226,0.0,0.0,29,0.00,,CLR,0.00,VWS V14.01,2013-04-26 02:47:00,
2013-04-25 21:53:00,39.9,10.2,30.11,SW,226,0.0,0.0,29,0.00,,CLR,0.00,VWS V14.01,2013-04-26 02:53:00,
2013-04-25 21:58:00,39.7,10.1,30.11,SW,226,0.0,0.0,29,0.00,,CLR,0.00,VWS V14.01,2013-04-26 02:58:00,
2013-04-25 22:04:00,39.6,9.9,30.14,SW,226,0.0,0.0,29,0.00,,CLR,0.00,VWS V14.01,2013-04-26 03:04:00,
2013-04-25 22:09:00,39.4,9.8,30.14,SW,226,0.0,0.0,29,0.00,,CLR,0.00,VWS V14.01,2013-04-26 03:09:00,
2013-04-25 22:14:00,39.2,9.6,30.14,SW,226,0.0,0.0,29,0.00,,CLR,0.00,VWS V14.01,2013-04-26 03:14:00,
2013-04-25 22:20:00,39.2,10.4,30.14,SW,226,0.0,0.0,30,0.00,,CLR,0.00,VWS V14.01,2013-04-26 03:20:00,
2013-04-25 22:25:00,39.0,10.2,30.14,SW,226,0.0,0.0,30,0.00,,CLR,0.00,VWS V14.01,2013-04-26 03:25:00,
2013-04-25 22:30:00,38.8,10.1,30.14,SW,226,0.0,0.0,30,0.00,,CLR,0.00,VWS V14.01,2013-04-26 03:30:00,
2013-04-25 22:36:00,38.7,9.9,30.14,SW,226,0.0,0.0,30,0.00,,CLR,0.00,VWS V14.01,2013-04-26 03:36:00,
2013-04-25 22:41:00,38.7,10.6,30.14,SW,222,0.0,0.0,31,0.00,,CLR,0.00,VWS V14.01,2013-04-26 03:41:00,
2013-04-25 22:47:00,38.8,10.8,30.14,SW,219,0.0,0.0,31,0.00,,CLR,0.00,VWS V14.01,2013-04-26 03:47:00,
2013-04-25 22:52:00,39.0,11.0,30.14,SW,219,0.0,0.0,31,0.00,,CLR,0.00,VWS V14.01,2013-04-26 03:52:00,
2013-04-25 22:58:00,39.2,10.4,30.14,SW,217,0.0,0.0,30,0.00,,CLR,0.00,VWS V14.01,2013-04-26 03:58:00,
2013-04-25 23:01:00,39.2,10.4,30.14,SW,217,0.0,0.0,30,0.00,,CLR,0.00,VWS V14.01,2013-04-26 04:01:00,
2013-04-25 23:02:00,39.2,10.4,30.14,SW,217,0.0,0.0,30,0.00,,CLR,0.00,VWS V14.01,2013-04-26 04:02:00,
2013-04-25 23:06:00,39.0,11.0,30.14,SW,217,0.0,0.0,31,0.00,,CLR,0.00,VWS V14.01,2013-04-26 04:06:00,
2013-04-25 23:09:00,38.8,10.8,30.14,SW,217,0.0,0.0,31,0.00,,CLR,0.00,VWS V14.01,2013-04-26 04:09:00,
2013-04-25 23:14:00,38.5,10.5,30.14,SW,217,0.0,0.0,31,0.00,,CLR,0.00,VWS V14.01,2013-04-26 04:14:00,
2013-04-25 23:19:00,38.3,10.3,30.14,SW,216,0.0,0.0,31,0.00,,CLR,0.00,VWS V14.01,2013-04-26 04:19:00,
2013-04-25 23:21:00,38.1,10.2,30.14,SSW,213,0.0,0.0,31,0.00,,CLR,0.00,VWS V14.01,2013-04-26 04:21:00,
2013-04-25 23:27:00,37.9,10.0,30.14,SSW,213,0.0,0.0,31,0.00,,CLR,0.00,VWS V14.01,2013-04-26 04:27:00,
2013-04-25 23:33:00,37.6,10.4,30.14,SSW,213,0.0,0.0,32,0.00,,CLR,0.00,VWS V14.01,2013-04-26 04:33:00,
2013-04-25 23:39:00,37.2,10.8,30.14,SSW,213,0.0,0.0,33,0.00,,CLR,0.00,VWS V14.01,2013-04-26 04:39:00,
2013-04-25 23:44:00,37.0,10.6,30.14,SSW,211,0.0,0.0,33,0.00,,CLR,0.00,VWS V14.01,2013-04-26 04:44:00,
2013-04-25 23:49:00,36.9,10.5,30.14,SSW,205,0.0,0.0,33,0.00,,CLR,0.00,VWS V14.01,2013-04-26 04:49:00,
2013-04-25 23:55:00,36.9,10.5,30.14,SSW,205,0.0,0.0,33,0.00,,CLR,0.00,VWS V14.01,2013-04-26 04:55:00,